Grand Forks, ND (58203)

12:04 PM CDT on July 28, 2016 (GMT -0500)
Grand Forks International | | Change Station

Elev 843 ft 47.95 °N, 97.18 °W | Updated 11 minutes ago

Partly Cloudy
Partly Cloudy
73 °F
Feels Like 73 °F
N
10
Wind Variable Wind from NNE

Today
High -- | Low -- °F
--% Chance of Precip.
Yesterday
High -- | Low -- °F
Precip. -- in
Pressure 30.13 in
Visibility 10.0 miles
Clouds Few 4000 ft
Few 25000 ft
Dew Point 57 °F
Humidity 57%
Rainfall 0.00 in
Snow Depth Not available.
6:00 AM 9:08 PM
Waning Crescent, 30% visible
METAR KGFK 281653Z 02009KT 10SM FEW040 FEW250 23/14 A3013 RMK AO2 SLP201 T02280139 $
Pressure 30.13 in
Visibility 10.0 miles
Clouds Few 4000 ft
Few 25000 ft
Dew Point 57 °F
Humidity 57%
Rainfall 0.00 in
Snow Depth Not available.
6:00 AM 9:08 PM
Waning Crescent, 30% visible
METAR KGFK 281653Z 02009KT 10SM FEW040 FEW250 23/14 A3013 RMK AO2 SLP201 T02280139 $

10-Day Weather Forecast

Almanac

Astronomy

Jul. 28, 2016 Rise Set
Actual Time
Civil Twilight
Nautical Twilight
Astronomical Twilight
Moon
Length of Visible Light
Length of Day
Tomorrow will be .
, % of the Moon is Illuminated

Today's Extremes

State Highs State Lows

Community

WunderPhotos

Upload Photos

1,928,155 photos uploaded!

WunderBlog® & News

Nearby

Air Quality

  Air Quality AQ Index Pollutant
Not available.

Snow Depth

Station Depth Elevation

Earthquake Activity

City Distance Mag. Time & Date
Minimum magnitude displayed is 2.5.

Coastal Water Temperatures

Place Temperature

Stations

Nearby Weather Stations

Station Location Temp. Windchill Dew Point Humidity Wind Precip. Elev Updated Type
                   

Watches & Warnings

There are currently no watches in effect.